LOWI/INN METAR and TAF weather

Enter ICAO airport designator
Station Type Date Time Source
LOWI METAR 2022/11/27 07:50 UTC NOAA

LOWI 270750Z VRB02KT CAVOK M02/M02 Q1029 NOSIG


Station Type Date Time Source
LOWI Decoded METAR 2022/11/27 07:50 UTC NOAA

Innsbruck-Flughafen, Austria (LOWI) 47-16N 011-21E 593M
Nov 27, 2022 - 02:50 AM EST / 2022.11.27 0750 UTC
Wind: Variable at 2 MPH (2 KT):0
Visibility: greater than 7 mile(s):0
Temperature: 28 F (-2 C)
Dew Point: 28 F (-2 C)
Relative Humidity: 100%
Pressure (altimeter): 30.39 in. Hg (1029 hPa)
ob: LOWI 270750Z VRB02KT CAVOK M02/M02 Q1029 NOSIG
cycle: 8

Station Type Date Time Source
LOWI TAF 2022/11/27 06:21 UTC NOAA

TAF LOWI 270515Z 2706/2806 28003KT CAVOK TX06/2713Z TNM02/2707Z
BECMG 2708/2710 09007KT
BECMG 2717/2719 27006KT

Example: see airport list